Time;durP1;ratioP1;P1;durP2;ratioP2;P2;SDS_P1;SDS_P2;PMS_P1;PMS_P2;Temp;Humidity;BMP_temperature;BMP_pressure;BME280_temperature;BME280_humidity;BME280_pressure;Samples;Min_cycle;Max_cycle;Signal;HPM_P1;HPM_P2
2024/03/05 00:01:06;;;;;;;3.70;2.45;;;8.40;84.30;;;;;;5069213;28;20059;-68
2024/03/05 00:03:32;;;;;;;4.15;2.50;;;8.40;84.30;;;;;;5073141;28;20420;-67
2024/03/05 00:05:57;;;;;;;3.88;2.42;;;8.40;84.30;;;;;;5067853;28;20025;-67
2024/03/05 00:08:23;;;;;;;4.40;2.40;;;8.40;84.30;;;;;;5072030;28;20059;-67
2024/03/05 00:10:48;;;;;;;4.65;2.90;;;8.30;84.40;;;;;;5071680;28;20060;-67
2024/03/05 00:13:14;;;;;;;4.18;2.67;;;8.30;84.40;;;;;;5070397;28;20407;-67
2024/03/05 00:15:40;;;;;;;4.60;2.85;;;8.40;84.40;;;;;;5065783;28;20067;-66
2024/03/05 00:18:05;;;;;;;5.05;2.70;;;8.30;84.30;;;;;;5069394;28;20036;-67
2024/03/05 00:20:34;;;;;;;4.13;2.58;;;8.30;84.30;;;;;;5073573;28;20544;-68
2024/03/05 00:23:00;;;;;;;4.70;3.00;;;8.30;84.40;;;;;;5075375;28;20531;-67
2024/03/05 00:25:26;;;;;;;5.15;2.72;;;8.30;84.40;;;;;;5070078;28;20112;-67
2024/03/05 00:27:52;;;;;;;5.63;2.70;;;8.30;84.50;;;;;;5074799;28;20036;-67
2024/03/05 00:30:18;;;;;;;3.80;2.53;;;8.30;84.50;;;;;;5064119;28;20068;-67
2024/03/05 00:32:45;;;;;;;5.63;3.03;;;8.30;84.30;;;;;;5068804;28;20121;-66
2024/03/05 00:35:10;;;;;;;6.18;3.60;;;8.30;84.30;;;;;;5070685;28;20032;-65
2024/03/05 00:37:37;;;;;;;7.13;3.95;;;8.40;84.30;;;;;;5068492;28;20062;-65
2024/03/05 00:40:07;;;;;;;7.05;3.58;;;8.40;84.20;;;;;;5068800;28;20082;-67
2024/03/05 00:42:37;;;;;;;6.88;3.60;;;8.40;84.00;;;;;;5067481;28;20016;-66
2024/03/05 00:45:06;;;;;;;6.70;3.70;;;8.30;84.10;;;;;;5070342;28;20063;-67
2024/03/05 00:47:33;;;;;;;5.70;3.10;;;8.20;84.20;;;;;;5072914;28;20023;-67
2024/03/05 00:49:59;;;;;;;5.00;2.92;;;8.20;84.40;;;;;;5075377;28;20060;-68
2024/03/05 00:52:25;;;;;;;6.07;3.22;;;8.20;84.40;;;;;;5072559;28;20032;-69
2024/03/05 00:54:50;;;;;;;5.15;2.75;;;8.20;84.40;;;;;;5065628;28;20132;-68
2024/03/05 00:57:16;;;;;;;5.10;2.75;;;8.20;84.50;;;;;;5072550;28;20025;-67
2024/03/05 00:59:43;;;;;;;4.38;2.92;;;8.30;84.40;;;;;;5076529;28;20028;-67
2024/03/05 01:02:08;;;;;;;4.32;2.80;;;8.40;84.30;;;;;;5080798;28;20024;-66
2024/03/05 01:04:34;;;;;;;4.47;2.53;;;8.40;84.20;;;;;;5076697;28;20020;-68
2024/03/05 01:07:00;;;;;;;4.93;2.92;;;8.40;84.20;;;;;;5072301;28;20031;-68
2024/03/05 01:09:27;;;;;;;3.85;2.50;;;8.50;84.20;;;;;;5067111;28;20420;-68
2024/03/05 01:11:53;;;;;;;4.35;2.70;;;8.50;84.10;;;;;;5076789;28;20036;-69
2024/03/05 01:14:22;;;;;;;5.45;3.08;;;8.60;84.10;;;;;;5070654;28;20069;-66
2024/03/05 01:16:47;;;;;;;5.72;3.05;;;8.60;84.10;;;;;;5071138;28;20082;-66
2024/03/05 01:19:13;;;;;;;5.35;3.45;;;8.60;84.20;;;;;;5069649;28;20033;-66
2024/03/05 01:21:43;;;;;;;4.88;3.13;;;8.60;84.20;;;;;;5076823;28;20487;-66
2024/03/05 01:24:09;;;;;;;5.32;3.15;;;8.60;84.20;;;;;;5075457;28;20024;-65
2024/03/05 01:26:37;;;;;;;5.22;3.33;;;8.70;84.30;;;;;;5069341;28;20036;-66
2024/03/05 01:29:04;;;;;;;5.85;3.03;;;8.70;84.30;;;;;;5071366;28;20484;-67
2024/03/05 01:31:29;;;;;;;4.70;3.08;;;8.80;84.30;;;;;;5075923;28;20387;-66
2024/03/05 01:33:55;;;;;;;5.72;3.50;;;8.70;84.30;;;;;;5077218;28;20032;-65
2024/03/05 01:36:20;;;;;;;5.00;3.20;;;8.70;84.30;;;;;;5075183;28;20021;-66
2024/03/05 01:38:46;;;;;;;5.93;3.28;;;8.70;84.30;;;;;;5075338;28;20024;-66
2024/03/05 01:41:13;;;;;;;4.47;2.90;;;8.70;84.40;;;;;;5069866;28;20063;-66
2024/03/05 01:43:39;;;;;;;9.43;4.57;;;8.70;84.50;;;;;;5068558;28;20117;-66
2024/03/05 01:46:04;;;;;;;5.95;2.97;;;8.70;84.60;;;;;;5066464;28;20071;-65
2024/03/05 01:48:30;;;;;;;5.65;3.33;;;8.70;84.70;;;;;;5070369;28;20045;-66
2024/03/05 01:50:56;;;;;;;4.95;3.08;;;8.70;84.70;;;;;;5068255;28;20121;-65
2024/03/05 01:53:23;;;;;;;6.18;3.55;;;8.70;84.70;;;;;;5068332;28;20888;-66
2024/03/05 01:55:53;;;;;;;7.18;4.00;;;8.70;84.90;;;;;;5074315;28;20487;-66
2024/03/05 01:58:20;;;;;;;6.95;3.85;;;8.60;85.30;;;;;;5066821;28;20055;-67
2024/03/05 02:00:46;;;;;;;8.27;4.85;;;8.60;85.60;;;;;;5069214;28;20025;-66
2024/03/05 02:03:12;;;;;;;7.07;4.30;;;8.50;85.60;;;;;;5069086;28;20070;-65
2024/03/05 02:05:43;;;;;;;7.13;4.38;;;8.50;85.80;;;;;;5071645;28;20020;-64
2024/03/05 02:08:08;;;;;;;8.73;5.00;;;8.50;86.00;;;;;;5068202;28;20087;-65
2024/03/05 02:10:34;;;;;;;7.57;4.60;;;8.40;86.00;;;;;;5067390;28;20729;-66
2024/03/05 02:13:00;;;;;;;6.40;3.90;;;8.40;86.30;;;;;;5069937;28;20035;-66
2024/03/05 02:15:25;;;;;;;8.70;5.25;;;8.40;86.70;;;;;;5075281;28;20032;-67
2024/03/05 02:17:51;;;;;;;9.00;4.97;;;8.40;86.90;;;;;;5072044;28;20029;-66
2024/03/05 02:20:17;;;;;;;8.02;4.55;;;8.30;86.80;;;;;;5071313;28;20028;-65
2024/03/05 02:22:43;;;;;;;9.80;5.47;;;8.40;86.80;;;;;;5069606;28;20023;-65
2024/03/05 02:25:12;;;;;;;8.40;4.55;;;8.30;86.90;;;;;;5070163;28;20027;-65
2024/03/05 02:27:38;;;;;;;11.55;6.07;;;8.30;86.90;;;;;;5070366;28;20133;-64
2024/03/05 02:30:10;;;;;;;10.90;5.68;;;8.30;87.20;;;;;;5067673;28;20028;-68
2024/03/05 02:32:40;;;;;;;8.77;5.25;;;8.30;87.20;;;;;;5067531;28;20032;-64
2024/03/05 02:35:10;;;;;;;8.85;5.10;;;8.30;87.50;;;;;;5073604;28;20031;-67
2024/03/05 02:37:38;;;;;;;10.77;5.75;;;8.30;87.50;;;;;;5069961;28;20017;-65
2024/03/05 02:40:09;;;;;;;8.25;5.18;;;8.30;87.50;;;;;;5079206;28;20056;-64
2024/03/05 02:42:35;;;;;;;10.73;5.32;;;8.30;87.60;;;;;;5071888;28;20378;-66
2024/03/05 02:45:04;;;;;;;8.02;4.95;;;8.40;87.90;;;;;;5072678;28;20115;-67
2024/03/05 02:47:33;;;;;;;11.48;6.03;;;8.30;87.70;;;;;;5071979;28;20016;-67
2024/03/05 02:49:59;;;;;;;10.10;5.38;;;8.40;87.90;;;;;;5075925;28;20020;-65
2024/03/05 02:52:26;;;;;;;11.07;6.15;;;8.30;88.00;;;;;;5068304;28;20436;-67
2024/03/05 02:54:51;;;;;;;8.98;4.75;;;8.40;88.10;;;;;;5074009;28;20042;-66
2024/03/05 02:57:18;;;;;;;8.93;5.22;;;8.40;88.00;;;;;;5073660;28;20538;-65
2024/03/05 02:59:44;;;;;;;8.68;5.13;;;8.30;88.20;;;;;;5071695;28;20017;-67
2024/03/05 03:02:09;;;;;;;8.60;4.60;;;8.40;88.10;;;;;;5070557;28;20012;-67
2024/03/05 03:04:35;;;;;;;8.88;4.95;;;8.40;88.00;;;;;;5076059;28;20036;-65
2024/03/05 03:07:01;;;;;;;6.80;3.72;;;8.50;87.90;;;;;;5081522;28;20024;-67
2024/03/05 03:09:26;;;;;;;7.38;4.10;;;8.60;87.80;;;;;;5078379;28;20021;-65
2024/03/05 03:11:52;;;;;;;5.80;3.50;;;8.60;87.60;;;;;;5075961;28;20028;-65
2024/03/05 03:14:17;;;;;;;6.32;3.85;;;8.70;87.50;;;;;;5073549;28;20036;-66
2024/03/05 03:16:43;;;;;;;6.60;3.60;;;8.80;87.40;;;;;;5073403;28;20027;-66
2024/03/05 03:19:10;;;;;;;6.50;3.85;;;8.80;87.30;;;;;;5072714;28;20033;-66
2024/03/05 03:21:36;;;;;;;5.72;3.45;;;8.80;87.20;;;;;;5074521;28;20153;-65
2024/03/05 03:24:03;;;;;;;7.20;3.42;;;8.90;87.20;;;;;;5074762;28;20574;-66
2024/03/05 03:26:29;;;;;;;7.32;3.58;;;8.90;87.10;;;;;;5071754;28;20025;-67
2024/03/05 03:28:54;;;;;;;6.00;3.42;;;8.90;87.00;;;;;;5075776;28;20099;-66
2024/03/05 03:31:22;;;;;;;5.63;3.53;;;9.00;86.90;;;;;;5072790;28;20071;-66
2024/03/05 03:33:47;;;;;;;5.78;3.30;;;9.00;87.10;;;;;;5071737;28;20422;-66
2024/03/05 03:36:25;;;;;;;7.32;3.53;;;9.00;86.80;;;;;;5075212;28;20109;-65
2024/03/05 03:38:51;;;;;;;6.40;3.42;;;9.10;86.90;;;;;;5069955;28;20028;-66
2024/03/05 03:41:17;;;;;;;6.38;3.42;;;9.10;86.80;;;;;;5072302;28;20017;-65
2024/03/05 03:43:43;;;;;;;7.20;4.07;;;9.10;86.60;;;;;;5069248;28;20155;-65
2024/03/05 03:46:08;;;;;;;7.53;3.88;;;9.10;86.50;;;;;;5069202;28;20096;-65
2024/03/05 03:48:40;;;;;;;7.65;4.40;;;9.10;86.60;;;;;;5074035;28;20021;-66
2024/03/05 03:51:06;;;;;;;8.38;4.82;;;9.00;86.80;;;;;;5069149;28;20021;-66
2024/03/05 03:53:36;;;;;;;9.50;5.10;;;8.90;87.00;;;;;;5069886;28;20036;-66
2024/03/05 03:56:03;;;;;;;8.70;4.70;;;8.90;87.20;;;;;;5069236;28;20039;-68
2024/03/05 03:58:30;;;;;;;6.20;3.97;;;9.00;87.30;;;;;;5070124;28;20027;-66
2024/03/05 04:00:56;;;;;;;8.52;4.63;;;8.90;87.20;;;;;;5072564;28;20039;-66
2024/03/05 04:03:21;;;;;;;8.60;4.60;;;8.90;87.30;;;;;;5077965;28;20028;-66
2024/03/05 04:05:47;;;;;;;8.60;4.63;;;8.90;87.20;;;;;;5071975;28;20040;-67
2024/03/05 04:08:12;;;;;;;7.75;4.32;;;8.90;87.20;;;;;;5068962;28;20016;-67
2024/03/05 04:10:38;;;;;;;9.02;4.55;;;9.00;87.30;;;;;;5070625;28;20777;-65
2024/03/05 04:13:03;;;;;;;8.80;4.75;;;9.00;87.20;;;;;;5076050;28;20378;-66
2024/03/05 04:15:29;;;;;;;9.52;5.03;;;9.00;87.30;;;;;;5070410;28;20730;-67
2024/03/05 04:17:56;;;;;;;7.78;4.35;;;8.90;87.30;;;;;;5069439;28;20065;-66
2024/03/05 04:20:21;;;;;;;8.25;4.28;;;9.00;87.40;;;;;;5074244;28;20115;-67
2024/03/05 04:22:47;;;;;;;10.00;5.35;;;9.00;87.40;;;;;;5078457;28;20100;-66
2024/03/05 04:25:13;;;;;;;8.43;4.53;;;9.00;87.40;;;;;;5069786;28;20029;-65
2024/03/05 04:27:45;;;;;;;11.82;6.45;;;8.90;87.40;;;;;;5072829;28;20513;-66
2024/03/05 04:30:13;;;;;;;;;;;8.90;87.70;;;;;;5071277;28;20200;-66
2024/03/05 04:32:46;;;;;;;10.65;5.95;;;8.80;87.90;;;;;;5071051;28;19916;-68
2024/03/05 04:35:16;;;;;;;10.88;5.95;;;8.80;88.20;;;;;;5071147;28;20108;-66
2024/03/05 04:37:42;;;;;;;11.85;6.78;;;8.80;88.20;;;;;;5078160;28;20032;-66
2024/03/05 04:40:12;;;;;;;9.93;5.68;;;8.80;88.30;;;;;;5073796;28;20032;-66
2024/03/05 04:42:39;;;;;;;10.68;5.88;;;8.80;88.40;;;;;;5077708;28;20030;-68
2024/03/05 04:45:07;;;;;;;13.85;6.15;;;8.80;88.40;;;;;;5071611;28;20016;-67
2024/03/05 04:47:33;;;;;;;11.25;6.13;;;8.80;88.40;;;;;;5074830;28;20023;-66
2024/03/05 04:49:58;;;;;;;14.10;8.15;;;8.70;88.50;;;;;;5068555;28;20016;-67
2024/03/05 04:52:24;;;;;;;13.35;6.63;;;8.70;88.70;;;;;;5072029;28;20024;-68
2024/03/05 04:54:49;;;;;;;18.98;9.85;;;8.70;88.70;;;;;;5075251;28;20015;-65
2024/03/05 04:57:15;;;;;;;14.55;7.85;;;8.70;89.10;;;;;;5073705;28;20513;-65
2024/03/05 04:59:41;;;;;;;16.00;8.18;;;8.60;89.20;;;;;;5071492;28;20020;-66
2024/03/05 05:02:07;;;;;;;14.38;7.15;;;8.60;89.40;;;;;;5071734;28;20029;-67
2024/03/05 05:04:37;;;;;;;13.48;7.22;;;8.60;89.40;;;;;;5074614;28;20543;-67
2024/03/05 05:07:05;;;;;;;12.43;6.30;;;8.60;89.30;;;;;;5069254;28;20131;-67
2024/03/05 05:09:31;;;;;;;11.25;5.90;;;8.70;89.30;;;;;;5069255;28;20028;-67
2024/03/05 05:11:57;;;;;;;11.63;5.70;;;8.70;89.30;;;;;;5068593;28;20028;-67
2024/03/05 05:14:22;;;;;;;15.23;7.63;;;8.60;89.30;;;;;;5071519;28;20036;-66
2024/03/05 05:16:48;;;;;;;14.32;6.70;;;8.60;89.50;;;;;;5071189;28;20402;-67
2024/03/05 05:19:16;;;;;;;12.73;6.70;;;8.60;89.50;;;;;;5078863;28;20028;-67
2024/03/05 05:21:45;;;;;;;14.85;7.70;;;8.60;89.50;;;;;;5068986;28;20492;-67
2024/03/05 05:24:10;;;;;;;15.18;8.02;;;8.60;89.90;;;;;;5079514;28;20020;-67
2024/03/05 05:26:36;;;;;;;17.42;8.68;;;8.60;90.00;;;;;;5074425;28;20020;-66
2024/03/05 05:29:02;;;;;;;15.75;8.15;;;8.50;90.10;;;;;;5065406;28;20027;-66
2024/03/05 05:31:28;;;;;;;14.93;6.97;;;8.50;90.10;;;;;;5068822;28;20092;-65
2024/03/05 05:33:55;;;;;;;14.60;7.32;;;8.50;90.20;;;;;;5070841;28;20028;-68
2024/03/05 05:36:20;;;;;;;17.30;8.00;;;8.50;90.10;;;;;;5079983;28;20414;-66
2024/03/05 05:38:48;;;;;;;15.70;7.20;;;8.50;90.20;;;;;;5074318;28;20031;-67
2024/03/05 05:41:15;;;;;;;13.18;5.78;;;8.50;90.20;;;;;;5071564;28;20407;-67
2024/03/05 05:43:40;;;;;;;10.73;5.47;;;8.60;90.20;;;;;;5068157;28;20032;-67
2024/03/05 05:46:14;;;;;;;12.75;6.10;;;8.60;90.20;;;;;;5068845;28;20047;-68
2024/03/05 05:48:43;;;;;;;11.73;5.82;;;8.60;90.10;;;;;;5071945;28;20048;-68
2024/03/05 05:51:11;;;;;;;10.02;5.10;;;8.60;90.10;;;;;;5071897;28;20085;-66
2024/03/05 05:53:37;;;;;;;13.27;7.20;;;8.70;90.10;;;;;;5066087;28;20040;-66
2024/03/05 05:56:05;;;;;;;11.30;5.60;;;8.70;90.20;;;;;;5066153;28;20074;-67
2024/03/05 05:58:30;;;;;;;13.95;7.00;;;8.70;90.20;;;;;;5069655;28;20024;-66
2024/03/05 06:00:56;;;;;;;15.30;7.43;;;8.60;90.20;;;;;;5076651;28;20043;-69
2024/03/05 06:03:22;;;;;;;16.00;7.28;;;8.60;90.20;;;;;;5078378;28;20021;-67
2024/03/05 06:05:48;;;;;;;19.17;8.57;;;8.60;90.40;;;;;;5070632;28;20017;-68
2024/03/05 06:08:14;;;;;;;14.88;6.85;;;8.50;90.40;;;;;;5068230;28;20553;-68
2024/03/05 06:10:43;;;;;;;14.88;6.57;;;8.50;90.50;;;;;;5080320;28;20021;-69
2024/03/05 06:13:09;;;;;;;11.05;5.75;;;8.60;90.50;;;;;;5081136;28;20081;-68
2024/03/05 06:15:41;;;;;;;16.98;8.15;;;8.60;90.60;;;;;;5073215;28;20085;-67
2024/03/05 06:18:06;;;;;;;19.33;9.50;;;8.50;90.70;;;;;;5076744;28;20021;-68
2024/03/05 06:20:32;;;;;;;20.25;8.57;;;8.50;90.80;;;;;;5075173;28;20032;-70
2024/03/05 06:23:00;;;;;;;21.20;8.20;;;8.50;90.80;;;;;;5076889;28;20059;-67
2024/03/05 06:25:30;;;;;;;16.73;8.00;;;8.50;90.80;;;;;;5069883;28;20031;-66
2024/03/05 06:27:56;;;;;;;16.42;7.75;;;8.50;90.80;;;;;;5074749;28;20032;-67
2024/03/05 06:30:22;;;;;;;14.77;6.53;;;8.60;90.70;;;;;;5078873;28;20475;-67
2024/03/05 06:32:49;;;;;;;13.50;6.43;;;8.70;90.70;;;;;;5075358;28;20028;-66
2024/03/05 06:35:23;;;;;;;16.25;6.05;;;8.70;90.60;;;;;;5078178;28;20031;-66
2024/03/05 06:37:49;;;;;;;14.48;6.93;;;8.80;90.50;;;;;;5073832;28;20049;-67
2024/03/05 06:40:19;;;;;;;14.98;7.00;;;8.80;90.40;;;;;;5074839;28;20691;-66
2024/03/05 06:43:03;;;;;;;13.95;5.93;;;8.80;90.40;;;;;;5069339;28;20036;-67
2024/03/05 06:45:29;;;;;;;13.68;6.07;;;8.80;90.40;;;;;;5072010;28;20567;-66
2024/03/05 06:48:01;;;;;;;15.32;6.90;;;8.80;90.40;;;;;;5073399;28;20020;-69
2024/03/05 06:50:41;;;;;;;14.70;6.75;;;8.80;90.50;;;;;;5073693;28;20028;-66
2024/03/05 06:58:47;;;;;;;13.30;6.43;;;8.70;90.60;;;;;;5067930;28;20101;-69
2024/03/05 07:01:14;;;;;;;12.82;6.13;;;8.70;90.70;;;;;;5070290;28;20108;-68
2024/03/05 07:03:42;;;;;;;17.75;7.88;;;8.70;90.70;;;;;;5071194;28;20028;-67
2024/03/05 07:06:09;;;;;;;13.90;6.72;;;8.60;90.70;;;;;;5069736;28;20048;-68
2024/03/05 07:08:42;;;;;;;17.88;8.18;;;8.70;90.80;;;;;;5066100;28;20027;-66
2024/03/05 07:11:11;;;;;;;14.45;7.10;;;8.70;90.70;;;;;;5068377;28;20020;-68
2024/03/05 07:13:38;;;;;;;13.60;6.50;;;8.70;90.70;;;;;;5068203;28;20029;-67
2024/03/05 07:16:05;;;;;;;11.60;5.97;;;8.80;90.70;;;;;;5076821;28;20025;-68
2024/03/05 07:18:30;;;;;;;11.60;5.53;;;8.80;90.70;;;;;;5074799;28;20503;-67
2024/03/05 07:20:56;;;;;;;14.25;6.55;;;8.80;90.70;;;;;;5070589;28;20054;-69
2024/03/05 07:23:22;;;;;;;16.42;6.68;;;8.80;90.70;;;;;;5070388;28;20013;-66
2024/03/05 07:25:48;;;;;;;25.38;10.13;;;8.80;90.80;;;;;;5074703;28;20056;-66
2024/03/05 07:28:15;;;;;;;22.55;8.20;;;8.70;90.90;;;;;;5075233;28;20481;-66
2024/03/05 07:30:42;;;;;;;18.42;7.72;;;8.80;90.90;;;;;;5072623;28;20028;-67
2024/03/05 07:33:09;;;;;;;16.88;7.60;;;8.80;90.80;;;;;;5068140;28;20027;-67
2024/03/05 07:35:36;;;;;;;16.90;6.88;;;8.80;90.80;;;;;;5070365;28;20034;-68
2024/03/05 07:38:01;;;;;;;12.90;6.47;;;8.90;90.80;;;;;;5070658;28;20125;-67
2024/03/05 07:40:27;;;;;;;11.77;4.78;;;8.90;90.70;;;;;;5072271;28;20043;-66
2024/03/05 07:42:53;;;;;;;13.85;5.75;;;9.00;90.70;;;;;;5072895;28;20047;-68
2024/03/05 07:45:20;;;;;;;13.32;5.88;;;9.00;90.70;;;;;;5068139;28;20103;-66
2024/03/05 07:47:47;;;;;;;13.48;6.05;;;9.10;90.70;;;;;;5066601;28;20080;-67
2024/03/05 07:50:14;;;;;;;12.23;5.55;;;9.10;90.50;;;;;;5068684;28;20799;-66
2024/03/05 07:52:43;;;;;;;13.48;6.20;;;9.10;90.50;;;;;;5070078;28;20073;-67
2024/03/05 07:55:15;;;;;;;16.60;6.80;;;9.10;90.40;;;;;;5069049;28;20036;-67
2024/03/05 07:57:42;;;;;;;12.18;5.85;;;9.10;90.50;;;;;;5066266;28;20020;-66
2024/03/05 08:00:13;;;;;;;17.27;8.10;;;9.20;90.50;;;;;;5067255;28;20048;-66
2024/03/05 08:02:45;;;;;;;14.25;6.82;;;9.20;90.50;;;;;;5078721;28;20117;-66
2024/03/05 08:05:17;;;;;;;17.40;7.82;;;9.30;90.40;;;;;;5071850;28;20013;-66
2024/03/05 08:07:43;;;;;;;14.52;6.93;;;9.30;90.40;;;;;;5068214;28;21892;-67
2024/03/05 08:10:09;;;;;;;12.73;5.53;;;9.40;90.30;;;;;;5072242;28;20020;-68
2024/03/05 08:12:36;;;;;;;16.35;7.20;;;9.40;90.30;;;;;;5071930;28;20033;-68
2024/03/05 08:15:03;;;;;;;13.88;6.70;;;9.40;90.30;;;;;;5069870;28;20073;-66
2024/03/05 08:17:31;;;;;;;14.68;5.95;;;9.40;90.30;;;;;;5073828;28;20414;-67
2024/03/05 08:19:57;;;;;;;11.52;5.53;;;9.60;90.20;;;;;;5067104;28;20078;-68
2024/03/05 08:22:23;;;;;;;12.80;5.65;;;9.60;90.10;;;;;;5069593;28;20032;-67
2024/03/05 08:24:49;;;;;;;13.35;6.07;;;9.60;90.10;;;;;;5077727;28;20012;-66
2024/03/05 08:27:15;;;;;;;13.80;5.15;;;9.60;90.20;;;;;;5069796;28;20013;-67
2024/03/05 08:29:42;;;;;;;12.80;5.82;;;9.60;90.20;;;;;;5068928;28;20507;-67
2024/03/05 08:32:09;;;;;;;10.65;5.30;;;9.60;90.20;;;;;;5075361;28;20024;-68
2024/03/05 08:34:35;;;;;;;15.68;6.60;;;9.70;90.20;;;;;;5068995;28;20042;-67
2024/03/05 08:37:01;;;;;;;18.17;7.80;;;9.70;90.20;;;;;;5078473;28;20063;-68
2024/03/05 08:39:27;;;;;;;20.08;8.50;;;9.70;90.20;;;;;;5070878;28;20469;-69
2024/03/05 08:41:52;;;;;;;20.98;9.68;;;9.60;90.20;;;;;;5069214;28;20017;-66
2024/03/05 08:44:18;;;;;;;17.60;7.70;;;9.60;90.30;;;;;;5069768;28;20031;-67
2024/03/05 08:46:44;;;;;;;14.88;6.93;;;9.60;90.40;;;;;;5076264;28;20024;-67
2024/03/05 08:49:09;;;;;;;15.75;7.32;;;9.70;90.60;;;;;;5073310;28;20024;-68
2024/03/05 08:51:37;;;;;;;19.60;7.95;;;9.70;90.30;;;;;;5069915;28;20527;-68
2024/03/05 08:54:04;;;;;;;20.23;9.10;;;9.70;90.20;;;;;;5068596;28;20074;-69
2024/03/05 08:56:30;;;;;;;17.55;8.10;;;9.80;90.20;;;;;;5061428;28;20032;-66
2024/03/05 08:58:55;;;;;;;15.90;7.20;;;9.80;90.20;;;;;;5075680;28;20446;-67
2024/03/05 09:01:21;;;;;;;14.15;6.95;;;9.90;90.10;;;;;;5070779;28;20024;-67
2024/03/05 09:03:46;;;;;;;18.27;8.25;;;9.90;90.10;;;;;;5071705;28;20024;-66
2024/03/05 09:06:13;;;;;;;17.02;8.20;;;9.90;90.10;;;;;;5070634;28;20028;-68
2024/03/05 09:08:41;;;;;;;19.65;8.43;;;9.90;90.30;;;;;;5078818;28;20031;-69
2024/03/05 09:11:08;;;;;;;18.33;8.40;;;9.80;90.30;;;;;;5071323;28;20027;-67
2024/03/05 09:13:34;;;;;;;17.77;8.25;;;9.80;90.30;;;;;;5076497;28;20032;-69
2024/03/05 09:15:59;;;;;;;19.83;8.10;;;9.90;90.30;;;;;;5068813;28;20466;-68
2024/03/05 09:18:25;;;;;;;19.15;9.05;;;10.00;90.30;;;;;;5068274;28;20063;-68
2024/03/05 09:20:50;;;;;;;19.63;8.65;;;10.00;90.20;;;;;;5073028;28;20036;-68
2024/03/05 09:23:19;;;;;;;34.55;14.95;;;10.10;90.10;;;;;;5078490;28;20044;-70
2024/03/05 09:25:44;;;;;;;35.20;14.77;;;10.20;90.00;;;;;;5066637;28;20025;-68
2024/03/05 09:28:10;;;;;;;37.58;15.63;;;10.20;89.90;;;;;;5066981;28;20479;-67
2024/03/05 09:30:37;;;;;;;29.98;13.70;;;10.20;89.70;;;;;;5066341;28;20289;-68
2024/03/05 09:33:03;;;;;;;26.77;12.57;;;10.20;89.60;;;;;;5068752;28;20013;-67
2024/03/05 09:35:28;;;;;;;21.05;9.65;;;10.20;89.50;;;;;;5069678;28;20039;-69
2024/03/05 09:37:54;;;;;;;22.42;9.80;;;10.30;89.40;;;;;;5067994;28;20092;-69
2024/03/05 09:40:23;;;;;;;35.50;15.32;;;10.30;89.30;;;;;;5069407;28;20044;-69
2024/03/05 09:42:48;;;;;;;34.80;14.52;;;10.30;89.20;;;;;;5068118;28;20054;-68
2024/03/05 09:45:15;;;;;;;28.55;14.15;;;10.30;89.30;;;;;;5071966;28;20017;-67
2024/03/05 09:47:42;;;;;;;27.27;12.35;;;10.30;89.30;;;;;;5067692;28;20025;-68
2024/03/05 09:50:12;;;;;;;23.63;10.77;;;10.30;89.30;;;;;;5068073;28;20024;-67
2024/03/05 09:52:38;;;;;;;23.17;10.85;;;10.40;89.20;;;;;;5070124;28;20087;-69
2024/03/05 09:55:04;;;;;;;17.00;8.07;;;10.50;89.10;;;;;;5067769;28;20025;-70
2024/03/05 09:57:33;;;;;;;28.80;12.77;;;10.60;88.90;;;;;;5068922;28;20391;-67
2024/03/05 09:59:58;;;;;;;22.33;9.90;;;10.50;88.80;;;;;;5068356;28;20013;-68
2024/03/05 10:02:24;;;;;;;18.58;9.25;;;10.50;88.80;;;;;;5067761;28;20024;-67
2024/03/05 10:04:52;;;;;;;16.92;8.43;;;10.60;88.80;;;;;;5073752;28;20016;-67
2024/03/05 10:07:25;;;;;;;13.90;6.70;;;10.70;88.70;;;;;;5070052;28;20378;-70
2024/03/05 10:10:12;;;;;;;19.90;9.45;;;10.80;88.60;;;;;;5067763;28;20031;-68
2024/03/05 10:12:39;;;;;;;20.15;10.15;;;10.80;88.40;;;;;;5069719;28;20029;-68
2024/03/05 10:15:11;;;;;;;17.00;8.30;;;10.90;88.30;;;;;;5072135;28;20016;-68
2024/03/05 10:17:45;;;;;;;17.58;8.43;;;10.90;88.10;;;;;;5068813;28;20031;-67
2024/03/05 10:20:31;;;;;;;20.20;10.00;;;11.10;87.90;;;;;;5062041;28;20431;-66
2024/03/05 10:22:59;;;;;;;16.02;7.90;;;11.10;87.60;;;;;;5071027;28;20015;-68
2024/03/05 10:25:26;;;;;;;23.80;11.30;;;11.20;87.50;;;;;;5069304;28;20023;-69
2024/03/05 10:27:52;;;;;;;20.45;10.50;;;11.20;87.20;;;;;;5065815;28;20020;-66
2024/03/05 10:30:23;;;;;;;23.20;11.32;;;11.20;87.00;;;;;;5067955;28;20379;-68
2024/03/05 10:32:54;;;;;;;15.90;8.30;;;11.20;86.90;;;;;;5066932;28;20027;-68
2024/03/05 10:35:20;;;;;;;17.05;8.40;;;11.30;86.80;;;;;;5067964;28;20640;-69
2024/03/05 10:37:59;;;;;;;13.82;7.25;;;11.40;86.60;;;;;;5067613;28;20053;-68
2024/03/05 10:40:25;;;;;;;12.23;6.38;;;11.50;86.50;;;;;;5067477;28;20032;-67
2024/03/05 10:42:52;;;;;;;13.02;6.35;;;11.50;86.20;;;;;;5067200;28;20016;-66
2024/03/05 10:45:22;;;;;;;10.52;5.55;;;11.50;86.80;;;;;;5066953;28;20020;-68
2024/03/05 10:47:50;;;;;;;14.82;7.82;;;11.60;86.20;;;;;;5067950;28;20024;-68
2024/03/05 10:50:17;;;;;;;11.18;6.10;;;11.50;86.00;;;;;;5066913;28;20039;-68
2024/03/05 10:52:43;;;;;;;12.70;6.22;;;11.60;86.00;;;;;;5067527;28;20103;-68
2024/03/05 10:55:11;;;;;;;15.85;7.85;;;11.50;85.90;;;;;;5067266;28;20021;-67
2024/03/05 10:58:08;;;;;;;19.55;9.00;;;11.50;85.90;;;;;;5071178;28;20036;-69
2024/03/05 11:00:27;;;;;;;14.82;7.68;;;11.40;85.90;;;;;;5070755;28;20028;-67
2024/03/05 11:03:03;;;;;;;15.95;7.72;;;11.40;86.00;;;;;;5067660;28;20395;-66
2024/03/05 11:05:33;;;;;;;14.25;6.78;;;11.40;86.00;;;;;;5063358;28;20498;-67
2024/03/05 11:08:00;;;;;;;26.92;13.10;;;11.40;86.00;;;;;;5069039;28;20071;-67
2024/03/05 11:10:27;;;;;;;20.30;10.48;;;11.20;85.70;;;;;;5076974;28;20036;-69
2024/03/05 11:12:53;;;;;;;20.13;9.80;;;11.20;85.90;;;;;;5073725;28;20450;-68
2024/03/05 11:15:21;;;;;;;16.83;8.85;;;11.20;85.80;;;;;;5073614;28;20077;-68
2024/03/05 11:17:47;;;;;;;15.38;8.00;;;11.20;86.00;;;;;;5071486;28;20051;-67
2024/03/05 11:20:40;;;;;;;9.95;5.70;;;11.20;86.00;;;;;;5074101;28;20050;-68
2024/03/05 11:23:07;;;;;;;11.52;6.13;;;11.30;85.90;;;;;;5080162;28;20031;-67
2024/03/05 11:25:33;;;;;;;8.80;4.80;;;11.20;85.90;;;;;;5076485;28;20024;-68
2024/03/05 11:27:59;;;;;;;10.43;6.07;;;11.30;85.90;;;;;;5077997;28;20027;-68
2024/03/05 11:30:30;;;;;;;11.18;5.60;;;11.30;86.00;;;;;;5074639;28;20029;-67
2024/03/05 11:33:07;;;;;;;8.48;4.90;;;11.30;85.90;;;;;;5074046;28;20542;-69
2024/03/05 11:35:36;;;;;;;11.73;6.72;;;11.30;86.50;;;;;;5076246;28;20021;-68
2024/03/05 11:38:02;;;;;;;10.52;5.95;;;11.30;85.80;;;;;;5069851;28;20169;-68
2024/03/05 11:40:32;;;;;;;10.40;5.75;;;11.30;85.80;;;;;;5074836;28;20034;-67
2024/03/05 11:42:58;;;;;;;10.68;5.93;;;11.40;85.80;;;;;;5078358;28;20048;-68
2024/03/05 11:45:44;;;;;;;9.73;5.82;;;11.30;85.60;;;;;;5073901;28;20936;-68
2024/03/05 11:48:18;;;;;;;11.68;6.70;;;11.30;85.70;;;;;;5080829;28;20024;-67
2024/03/05 11:50:47;;;;;;;11.20;6.50;;;11.40;85.70;;;;;;5074207;28;20040;-68
2024/03/05 11:53:13;;;;;;;11.63;6.53;;;11.40;85.60;;;;;;5077579;28;20029;-67
2024/03/05 11:55:39;;;;;;;12.13;6.32;;;11.30;85.50;;;;;;5074582;28;20044;-67
2024/03/05 11:58:07;;;;;;;9.30;5.45;;;11.30;85.50;;;;;;5083361;28;20081;-67
2024/03/05 12:00:33;;;;;;;10.00;5.85;;;11.30;85.50;;;;;;5077596;28;20036;-68
2024/03/05 12:02:59;;;;;;;10.80;5.88;;;11.20;85.40;;;;;;5081845;28;20040;-68
2024/03/05 12:05:25;;;;;;;10.65;6.00;;;11.20;85.50;;;;;;5072283;28;20385;-67
2024/03/05 12:08:01;;;;;;;8.60;5.30;;;11.10;85.50;;;;;;5076112;28;20047;-68
2024/03/05 12:10:31;;;;;;;8.05;4.55;;;11.10;85.60;;;;;;5072552;28;20060;-69
2024/03/05 12:12:59;;;;;;;7.75;4.53;;;11.10;85.70;;;;;;5067845;28;20109;-68
2024/03/05 12:15:29;;;;;;;7.70;4.50;;;11.00;85.70;;;;;;5077252;28;20663;-67
2024/03/05 12:17:56;;;;;;;8.55;4.28;;;11.00;85.80;;;;;;5070128;28;20024;-67
2024/03/05 12:20:22;;;;;;;7.65;4.68;;;11.00;85.90;;;;;;5072681;28;20036;-68
2024/03/05 12:22:55;;;;;;;7.55;4.47;;;11.00;85.90;;;;;;5082292;28;20028;-68
2024/03/05 12:25:26;;;;;;;6.07;3.80;;;11.00;86.00;;;;;;5068534;28;20025;-67
2024/03/05 12:27:52;;;;;;;7.03;3.85;;;11.00;86.00;;;;;;5075814;28;20024;-66
2024/03/05 12:30:17;;;;;;;6.30;3.90;;;10.90;86.00;;;;;;5071613;28;20031;-68
2024/03/05 12:32:47;;;;;;;7.20;3.85;;;11.00;86.10;;;;;;5081109;28;20055;-66
2024/03/05 12:35:14;;;;;;;7.30;3.95;;;10.90;86.10;;;;;;5067626;28;20071;-67
2024/03/05 12:37:40;;;;;;;5.95;3.88;;;10.90;86.00;;;;;;5073286;28;20032;-67
2024/03/05 12:40:13;;;;;;;5.30;3.40;;;10.90;86.10;;;;;;5073830;28;20047;-68
2024/03/05 12:42:39;;;;;;;4.90;3.40;;;10.90;86.10;;;;;;5071364;28;20077;-67
2024/03/05 12:45:17;;;;;;;7.03;3.25;;;10.90;86.00;;;;;;5081922;28;20024;-67
2024/03/05 12:47:57;;;;;;;5.07;3.15;;;10.90;86.00;;;;;;5084147;28;20524;-67
2024/03/05 12:50:23;;;;;;;4.75;2.95;;;11.00;86.00;;;;;;5077997;28;20103;-69
2024/03/05 12:53:01;;;;;;;5.68;3.28;;;11.00;85.80;;;;;;5077833;28;20028;-69
2024/03/05 12:55:28;;;;;;;4.85;3.08;;;11.00;85.70;;;;;;5071251;28;20442;-68